Hamburg Helmut Schmidt Airport

EDDH · Hamburg, 德国

METAR的历史 EDDH · Hamburg Airport

下面你可以看到过去几天的METARs。 选择年份以浏览从2007年开始的旧METAR。

2024年4月13日

时间 代码 天气 温度 能见度 天花板 METAR/SPECI
16:20
V
20 °C 10 km+ - 230° 230° 13 kt METAR EDDH 131420Z AUTO 23013KT 210V270 9999 FEW042 20/12 Q1019 TEMPO 23015G25KT
15:50
V
19 °C 10 km+ - 230° 230° 13 kt METAR EDDH 131350Z AUTO 23013KT 200V280 9999 FEW041 19/11 Q1020 TEMPO 25015G25KT
15:20
V
20 °C 10 km+ - 260° 260° 11 kt METAR EDDH 131320Z AUTO 26011KT 220V290 9999 FEW041 20/11 Q1020 TEMPO 25015G25KT
14:50
V
19 °C 10 km+ - 240° 240° 14 kt METAR EDDH 131250Z AUTO 24014KT 210V270 CAVOK 19/10 Q1021 TEMPO 25015G25KT
14:20
V
19 °C 10 km+ - 250° 250° 13 kt METAR EDDH 131220Z AUTO 25013KT 210V270 9999 FEW038 19/11 Q1021 TEMPO 25015G25KT
13:50
V
18 °C 10 km+ - 250° 250° 12 kt METAR EDDH 131150Z AUTO 25012KT 220V280 9999 SCT033 18/10 Q1021 TEMPO 25015G25KT
13:20
V
18 °C 10 km+ - 230° 230° 12 kt METAR EDDH 131120Z AUTO 23012KT 200V270 9999 SCT030 18/12 Q1022 TEMPO 24015G25KT
12:50
V
18 °C 10 km+ - 240° 240° 13 kt METAR EDDH 131050Z AUTO 24013KT 200V270 9999 FEW027 SCT032 18/12 Q1022 TEMPO 24015G25KT
12:20
V
18 °C 10 km+ - 220° 220° 14 kt METAR EDDH 131020Z AUTO 22014KT 9999 FEW024 SCT029 18/12 Q1022 NOSIG
11:50
V
17 °C 10 km+ - 240° 240° 12 kt METAR EDDH 130950Z AUTO 24012KT 220V280 9999 FEW022 17/13 Q1022 NOSIG
11:20
V
17 °C 10 km+ - 230° 230° 9 kt METAR EDDH 130920Z AUTO 23009KT 9999 SCT019 17/12 Q1022 NOSIG
10:50
V
16 °C 10 km+ - 240° 240° 10 kt METAR EDDH 130850Z AUTO 24010KT 9999 FEW018 16/12 Q1023 NOSIG
10:20
V
15 °C 10 km+ - 250° 250° 10 kt METAR EDDH 130820Z AUTO 25010KT 220V290 9999 FEW016 15/11 Q1023 NOSIG
09:50
V
15 °C 10 km+ - 250° 250° 9 kt METAR EDDH 130750Z AUTO 25009KT 210V270 9999 FEW016 SCT031 15/11 Q1023 NOSIG
09:20
V
14 °C 10 km+ 3.100 ft 230° 230° 10 kt METAR EDDH 130720Z AUTO 23010KT 210V270 9999 FEW015 BKN031 14/11 Q1023 NOSIG
08:50
V
13 °C 10 km+ - 240° 240° 9 kt METAR EDDH 130650Z AUTO 24009KT 210V270 9999 SCT034 13/11 Q1023 NOSIG
08:20
V
12 °C 10 km+ - 220° 220° 9 kt METAR EDDH 130620Z AUTO 22009KT CAVOK 12/11 Q1023 NOSIG
07:50
V
12 °C 10 km+ - 220° 220° 8 kt METAR EDDH 130550Z AUTO 22008KT CAVOK 12/10 Q1023 NOSIG
07:20
V
11 °C 10 km+ - 220° 220° 6 kt METAR EDDH 130520Z AUTO 22006KT CAVOK 11/09 Q1023 TEMPO BKN010
06:50
V
10 °C 10 km+ - 220° 220° 5 kt METAR EDDH 130450Z AUTO 22005KT CAVOK 10/09 Q1023 TEMPO FM0530 BKN010
06:20
V
10 °C 10 km+ - 220° 220° 6 kt METAR EDDH 130420Z AUTO 22006KT CAVOK 10/09 Q1023 TEMPO FM0530 BKN010
05:50
V
9 °C 10 km+ - 220° 220° 6 kt METAR EDDH 130350Z AUTO 22006KT 9999 FEW044 09/08 Q1023 NOSIG
05:20
V
9 °C 10 km+ - 220° 220° 6 kt METAR EDDH 130320Z AUTO 22006KT CAVOK 09/08 Q1023 NOSIG
04:50
V
9 °C 10 km+ - 220° 220° 5 kt METAR EDDH 130250Z AUTO 22005KT CAVOK 09/08 Q1023 NOSIG
04:20
V
9 °C 10 km+ - 220° 220° 5 kt METAR EDDH 130220Z AUTO 22005KT CAVOK 09/08 Q1023 NOSIG
03:50
V
9 °C 10 km+ - 220° 220° 5 kt METAR EDDH 130150Z AUTO 22005KT CAVOK 09/08 Q1023 NOSIG
03:20
V
9 °C 10 km+ - 220° 220° 5 kt METAR EDDH 130120Z AUTO 22005KT CAVOK 09/08 Q1023 NOSIG
02:50
V
9 °C 10 km+ - 200° 200° 3 kt METAR EDDH 130050Z AUTO 20003KT CAVOK 09/09 Q1024 NOSIG
02:20
V
9 °C 10 km+ - 200° 200° 3 kt METAR EDDH 130020Z AUTO 20003KT CAVOK 09/09 Q1024 TEMPO 3500 BR
01:50
L
8 °C 400 m - 210° 210° 3 kt METAR EDDH 122350Z AUTO 21003KT 6000 0400 R23/P2000N R15/0600D BCFG NSC 08/08 Q1024 TEMPO 3000
01:20
L
8 °C 900 m - 210° 210° 3 kt METAR EDDH 122320Z AUTO 21003KT 4600 0900 R23/P2000N R15/1300U BCFG NSC 08/08 Q1025 TEMPO 8000
00:50
I
9 °C 1,8 km - 220° 220° 3 kt METAR EDDH 122250Z AUTO 22003KT 8000 1800 BR NSC 09/08 Q1025 TEMPO 3500
00:20
I
9 °C 2,6 km - 220° 220° 3 kt METAR EDDH 122220Z AUTO 22003KT 8000 2600 BR NSC 09/09 Q1025 NOSIG

2024年4月12日

时间 代码 天气 温度 能见度 天花板 METAR/SPECI
23:50
L
9 °C 700 m - 200° 200° 2 kt METAR EDDH 122150Z AUTO 20002KT 9999 0700 R23/P2000N R15/1400D BCFG NSC 09/09 Q1025 NOSIG
23:20
V
10 °C 10 km+ - 270° 270° 3 kt METAR EDDH 122120Z AUTO 27003KT CAVOK 10/09 Q1025 NOSIG
22:50
V
10 °C 10 km+ - 290° 290° 4 kt METAR EDDH 122050Z AUTO 29004KT CAVOK 10/09 Q1025 NOSIG
22:20
V
11 °C 10 km+ - 330° 330° 3 kt METAR EDDH 122020Z AUTO 33003KT CAVOK 11/10 Q1025 BECMG 25005KT
21:50
V
11 °C 10 km+ - 290° 290° 4 kt METAR EDDH 121950Z AUTO 29004KT CAVOK 11/10 Q1026 NOSIG
21:20
V
12 °C 10 km+ - 320° 320° 3 kt METAR EDDH 121920Z AUTO 32003KT CAVOK 12/10 Q1025 BECMG 25005KT
20:50
V
12 °C 10 km+ - 270° 270° 5 kt METAR EDDH 121850Z AUTO 27005KT CAVOK 12/10 Q1025 NOSIG
20:20
V
13 °C 10 km+ - 240° 240° 3 kt METAR EDDH 121820Z AUTO 24003KT 220V280 CAVOK 13/10 Q1025 NOSIG
19:50
V
13 °C 10 km+ - 290° 290° 6 kt METAR EDDH 121750Z AUTO 29006KT 260V320 CAVOK 13/11 Q1025 NOSIG
19:20
V
14 °C 10 km+ - 310° 310° 8 kt METAR EDDH 121720Z AUTO 31008KT CAVOK 14/11 Q1025 BECMG 25005KT
18:50
V
14 °C 10 km+ - 300° 300° 10 kt METAR EDDH 121650Z AUTO 30010KT CAVOK 14/11 Q1025 BECMG 27005KT
18:20
V
15 °C 10 km+ - 300° 300° 12 kt METAR EDDH 121620Z AUTO 30012KT CAVOK 15/11 Q1025 BECMG 27006KT
17:50
V
15 °C 10 km+ - 310° 310° 15 kt METAR EDDH 121550Z AUTO 31015KT CAVOK 15/11 Q1025 TEMPO 31015G25KT
17:20
V
17 °C 10 km+ - 300° 300° 15 kt METAR EDDH 121520Z AUTO 30015KT 9999 FEW038 17/11 Q1025 TEMPO 22015G25KT
16:50
V
19 °C 10 km+ - 240° 240° 11 kt METAR EDDH 121450Z AUTO 24011KT 210V290 9999 SCT038 19/12 Q1025 TEMPO 22015G25KT
16:20
V
18 °C 10 km+ - 240° 240° 14 kt METAR EDDH 121420Z AUTO 24014KT 210V270 9999 SCT036 18/11 Q1026 TEMPO 22015G25KT
15:50
V
19 °C 10 km+ 3.300 ft 250° 250° 14 kt METAR EDDH 121350Z AUTO 25014KT 220V290 9999 BKN033 19/11 Q1026 TEMPO 22015G25KT
15:20
V
18 °C 10 km+ 3.200 ft 240° 240° 14 kt METAR EDDH 121320Z AUTO 24014KT 9999 SCT026 BKN032 18/12 Q1026 TEMPO 23015G25KT
14:50
M
17 °C 10 km+ 2.000 ft 230° 230° 13 kt METAR EDDH 121250Z AUTO 23013KT 9999 BKN020 17/12 Q1026 TEMPO 23015G25KT
14:20
M
16 °C 10 km+ 1.700 ft 240° 240° 12 kt METAR EDDH 121220Z AUTO 24012KT 210V270 9999 BKN017 16/13 Q1027 TEMPO 23015G25KT
13:50
M
16 °C 10 km+ 1.600 ft 220° 220° 14 kt METAR EDDH 121150Z AUTO 22014KT 9999 BKN016 BKN042 16/13 Q1026 TEMPO 22015G25KT
13:20
M
15 °C 10 km+ 1.300 ft 230° 230° 14 kt METAR EDDH 121120Z AUTO 23014KT 9999 OVC013 15/12 Q1027 BECMG BKN015
12:50
M
14 °C 10 km+ 1.400 ft 220° 220° 17 kt METAR EDDH 121050Z AUTO 22017KT 9999 OVC014 14/12 Q1027 BECMG BKN015
12:20
M
15 °C 10 km+ 1.600 ft 230° 230° 16 kt METAR EDDH 121020Z AUTO 23016KT 9999 OVC016 15/12 Q1027 NOSIG
11:50
M
15 °C 10 km+ 1.700 ft 240° 240° 13 kt METAR EDDH 120950Z AUTO 24013KT 9999 BKN017 15/11 Q1027 TEMPO 3500 DZ BKN010
11:20
M
14 °C 10 km+ 1.600 ft 230° 230° 12 kt METAR EDDH 120920Z AUTO 23012KT 9999 BKN016 14/12 Q1027 TEMPO 3500 DZ BKN010
10:50
M
14 °C 10 km+ 1.500 ft 220° 220° 14 kt METAR EDDH 120850Z AUTO 22014KT 9999 BKN015 OVC021 14/12 Q1027 TEMPO BKN013
10:20
M
14 °C 10 km+ 1.300 ft 220° 220° 13 kt METAR EDDH 120820Z AUTO 22013KT 9999 BKN013 BKN024 OVC029 14/12 Q1028 BECMG BKN015
09:50
M
14 °C 10 km+ 1.200 ft 210° 210° 11 kt METAR EDDH 120750Z AUTO 21011KT 9999 BKN012 OVC029 14/12 Q1028 BECMG BKN015
09:20
M
13 °C 10 km+ 1.100 ft 220° 220° 10 kt METAR EDDH 120720Z AUTO 22010KT 9999 BKN011 BKN018 OVC028 13/12 Q1028 TEMPO 4000 -DZ BKN008
08:50
I
13 °C 5 km 900 ft 210° 210° 10 kt METAR EDDH 120650Z AUTO 21010KT 5000 -DZ BR BKN009 BKN013 OVC026 13/12 Q1028 REDZ TEMPO 3500 DZ BKN013
08:20
M
13 °C 8 km 1.800 ft 210° 210° 11 kt METAR EDDH 120620Z AUTO 21011KT 8000 -DZ SCT009 BKN018 OVC023 13/12 Q1028 TEMPO 3000 DZ BKN008
07:50
I
13 °C 6 km 700 ft 210° 210° 9 kt METAR EDDH 120550Z AUTO 21009KT 6000 BKN007 BKN011 BKN023 13/12 Q1028 REDZ TEMPO 2500 DZ BKN004
07:20
I
13 °C 2,8 km 500 ft 210° 210° 9 kt METAR EDDH 120520Z AUTO 21009KT 2800 DZ BR BKN005 OVC010 13/12 Q1028 TEMPO 3500 DZ BKN004
06:50
I
13 °C 2,9 km 500 ft 200° 200° 8 kt METAR EDDH 120450Z AUTO 20008KT 2900 DZ BR BKN005 OVC008 13/12 Q1029 TEMPO 3500 -DZ BKN004
06:20
I
13 °C 3,7 km 600 ft 220° 220° 6 kt METAR EDDH 120420Z AUTO 22006KT 3700 DZ BR BKN006 BKN010 OVC018 13/12 Q1029 TEMPO 2500 -DZ BKN004
05:50
I
13 °C 8 km 800 ft 210° 210° 7 kt METAR EDDH 120350Z AUTO 21007KT 8000 BKN008 BKN013 OVC018 13/12 Q1029 TEMPO BKN004
05:20
M
13 °C 9 km 1.600 ft 210° 210° 7 kt METAR EDDH 120320Z AUTO 21007KT 9000 SCT009 BKN016 BKN022 13/12 Q1029 TEMPO 4500 -DZ BKN008
04:50
I
13 °C 8 km 800 ft 220° 220° 7 kt METAR EDDH 120250Z AUTO 22007KT 8000 BKN008 BKN012 OVC024 13/12 Q1029 TEMPO 4500 -DZ
04:20
I
13 °C 10 km+ 700 ft 230° 230° 6 kt METAR EDDH 120220Z AUTO 23006KT 200V260 9999 BKN007 BKN011 13/12 Q1029 TEMPO 4500 -DZ
03:50
M
13 °C 6 km 2.100 ft 220° 220° 7 kt METAR EDDH 120150Z AUTO 22007KT 6000 -DZ FEW008 SCT014 BKN021 13/12 Q1029 TEMPO 4500 -DZ BKN008
03:20
M
13 °C 10 km+ 2.400 ft 220° 220° 9 kt METAR EDDH 120120Z AUTO 22009KT 9999 FEW008 BKN024 OVC030 13/12 Q1029 TEMPO 4500 -DZ BKN008
02:50
M
13 °C 10 km+ 2.800 ft 230° 230° 9 kt METAR EDDH 120050Z AUTO 23009KT 9999 SCT008 OVC028 13/12 Q1030 NOSIG
02:20
I
13 °C 10 km+ 800 ft 230° 230° 7 kt METAR EDDH 120020Z AUTO 23007KT 9999 BKN008 OVC033 13/12 Q1030 NOSIG
01:50
I
13 °C 10 km+ 800 ft 220° 220° 7 kt METAR EDDH 112350Z AUTO 22007KT 9999 BKN008 BKN014 OVC033 13/12 Q1030 NOSIG
01:20
I
13 °C 10 km+ 800 ft 230° 230° 7 kt METAR EDDH 112320Z AUTO 23007KT 9999 BKN008 BKN012 OVC035 13/12 Q1030 NOSIG
00:50
I
13 °C 10 km+ 800 ft 220° 220° 7 kt METAR EDDH 112250Z AUTO 22007KT 9999 BKN008 BKN037 13/12 Q1030 NOSIG
00:20
I
13 °C 10 km+ 800 ft 230° 230° 7 kt METAR EDDH 112220Z AUTO 23007KT 9999 BKN008 BKN016 OVC037 13/12 Q1030 NOSIG

2024年4月11日

时间 代码 天气 温度 能见度 天花板 METAR/SPECI
23:50
I
13 °C 10 km+ 800 ft 230° 230° 8 kt METAR EDDH 112150Z AUTO 23008KT 9999 BKN008 BKN018 13/12 Q1030 NOSIG
23:20
I
13 °C 10 km+ 800 ft 230° 230° 9 kt METAR EDDH 112120Z AUTO 23009KT 9999 BKN008 13/12 Q1030 NOSIG
22:50
I
13 °C 10 km+ 800 ft 230° 230° 9 kt METAR EDDH 112050Z AUTO 23009KT 9999 BKN008 13/12 Q1030 NOSIG
22:20
I
13 °C 10 km+ 800 ft 230° 230° 9 kt METAR EDDH 112020Z AUTO 23009KT 9999 BKN008 OVC013 13/12 Q1030 TEMPO 4500 -DZ BR
21:50
I
13 °C 10 km+ 800 ft 220° 220° 7 kt METAR EDDH 111950Z AUTO 22007KT 9999 BKN008 BKN014 13/12 Q1030 TEMPO 4500 -DZ
21:20
I
13 °C 10 km+ 800 ft 230° 230° 5 kt METAR EDDH 111920Z AUTO 23005KT 9999 BKN008 BKN014 OVC022 13/12 Q1030 TEMPO 4500 -DZ
20:50
M
13 °C 6 km 1.700 ft 210° 210° 8 kt METAR EDDH 111850Z AUTO 21008KT 6000 -DZ FEW007 BKN017 BKN026 13/12 Q1030 TEMPO 3500 DZ BKN007
20:20
I
13 °C 6 km 700 ft 230° 230° 8 kt METAR EDDH 111820Z AUTO 23008KT 6000 BKN007 BKN016 OVC021 13/12 Q1030 REDZ TEMPO 2500 DZ
19:50
I
13 °C 7 km 900 ft 220° 220° 8 kt METAR EDDH 111750Z AUTO 22008KT 7000 -DZ BKN009 OVC013 13/12 Q1030 TEMPO 2500 DZ BKN008
19:20
M
13 °C 8 km 1.200 ft 240° 240° 9 kt METAR EDDH 111720Z AUTO 24009KT 210V270 8000 -DZ FEW006 OVC012 13/12 Q1029 TEMPO 3000 DZ BKN008
18:50
M
13 °C 10 km+ 1.300 ft 230° 230° 10 kt METAR EDDH 111650Z AUTO 23010KT 9999 BKN013 BKN017 13/11 Q1029 TEMPO 3000 DZ BKN008
18:20
M
13 °C 10 km+ 1.200 ft 220° 220° 10 kt METAR EDDH 111620Z AUTO 22010KT 9999 BKN012 OVC017 13/11 Q1029 TEMPO 3000 DZ BKN008
17:50
M
13 °C 10 km+ 1.300 ft 220° 220° 11 kt METAR EDDH 111550Z AUTO 22011KT 9999 BKN013 13/11 Q1029 NOSIG
17:20
M
13 °C 10 km+ 1.300 ft 230° 230° 11 kt METAR EDDH 111520Z AUTO 23011KT 9999 OVC013 13/11 Q1029 NOSIG
16:50
M
13 °C 10 km+ 1.500 ft 230° 230° 11 kt METAR EDDH 111450Z AUTO 23011KT 9999 BKN015 13/11 Q1029 BECMG BKN010
16:20
M
14 °C 10 km+ 1.600 ft 230° 230° 10 kt METAR EDDH 111420Z AUTO 23010KT 9999 OVC016 14/11 Q1029 NOSIG
15:50
M
14 °C 10 km+ 1.600 ft 240° 240° 9 kt METAR EDDH 111350Z AUTO 24009KT 210V270 9999 OVC016 14/10 Q1029 NOSIG
15:20
M
14 °C 10 km+ 1.600 ft 230° 230° 14 kt METAR EDDH 111320Z AUTO 23014KT 9999 OVC016 14/10 Q1029 NOSIG
14:50
M
13 °C 10 km+ 1.600 ft 240° 240° 12 kt METAR EDDH 111250Z AUTO 24012KT 210V270 9999 OVC016 13/10 Q1029 NOSIG
14:20
M
13 °C 10 km+ 1.600 ft 220° 220° 14 kt METAR EDDH 111220Z AUTO 22014KT 9999 OVC016 13/10 Q1029 NOSIG
13:50
M
13 °C 10 km+ 1.500 ft 230° 230° 14 kt METAR EDDH 111150Z AUTO 23014KT 9999 OVC015 13/10 Q1029 NOSIG
13:20
M
13 °C 10 km+ 1.400 ft 230° 230° 13 kt METAR EDDH 111120Z AUTO 23013KT 9999 BKN014 13/10 Q1029 NOSIG
12:50
M
12 °C 10 km+ 1.400 ft 230° 230° 13 kt METAR EDDH 111050Z AUTO 23013KT 9999 BKN014 12/09 Q1028 NOSIG
12:20
M
11 °C 10 km+ 1.500 ft 230° 230° 12 kt METAR EDDH 111020Z AUTO 23012KT 9999 -DZ OVC015 11/09 Q1029 BECMG BKN013
11:50
M
11 °C 10 km+ 1.600 ft 240° 240° 13 kt METAR EDDH 110950Z AUTO 24013KT 9999 -RA BKN016 BKN027 BKN044 11/09 Q1028 TEMPO BKN013
11:20
M
11 °C 10 km+ 1.800 ft 220° 220° 12 kt METAR EDDH 110920Z AUTO 22012KT 9999 -DZ BKN018 11/08 Q1028 TEMPO BKN013
10:50
M
10 °C 10 km+ 1.900 ft 220° 220° 12 kt METAR EDDH 110850Z AUTO 22012KT 9999 -RA BKN019 10/08 Q1028 NOSIG
10:20
M
10 °C 10 km+ 2.000 ft 220° 220° 11 kt METAR EDDH 110820Z AUTO 22011KT 9999 -RA BKN020 10/07 Q1027 NOSIG
09:50
M
10 °C 10 km+ 2.300 ft 220° 220° 9 kt METAR EDDH 110750Z AUTO 22009KT 9999 -RA OVC023 10/08 Q1027 TEMPO RA
09:20
M
10 °C 10 km+ 2.500 ft 230° 230° 10 kt METAR EDDH 110720Z AUTO 23010KT 9999 -RA BKN025 10/07 Q1027 TEMPO RA
08:50
M
11 °C 10 km+ 2.600 ft 220° 220° 11 kt METAR EDDH 110650Z AUTO 22011KT 9999 -RA BKN026 BKN036 BKN047 11/06 Q1027 TEMPO RA
08:20
M
11 °C 10 km+ 2.500 ft 210° 210° 13 kt METAR EDDH 110620Z AUTO 21013KT 9999 BKN025 BKN033 OVC043 11/06 Q1026 TEMPO RA
07:50
M
11 °C 10 km+ 2.800 ft 210° 210° 12 kt METAR EDDH 110550Z AUTO 21012KT 9999 -RA OVC028 11/06 Q1026 NOSIG
报告变更